createdAt,value
2018-05-19T00:01:01.113Z,14.05
2018-05-19T00:03:28.639Z,14.06
2018-05-19T00:05:56.201Z,14.04
2018-05-19T00:08:23.792Z,14.07
2018-05-19T00:10:51.322Z,14.01
2018-05-19T00:13:18.875Z,14.03
2018-05-19T00:15:46.472Z,14.03
2018-05-19T00:18:14.035Z,14.00
2018-05-19T00:20:41.565Z,13.99
2018-05-19T00:23:09.095Z,13.96
2018-05-19T00:25:36.648Z,13.91
2018-05-19T00:28:04.210Z,13.95
2018-05-19T00:30:31.770Z,13.93
2018-05-19T00:32:59.296Z,13.95
2018-05-19T00:35:26.952Z,13.95
2018-05-19T00:37:54.512Z,13.93
2018-05-19T00:40:22.037Z,13.91
2018-05-19T00:42:49.563Z,13.92
2018-05-19T00:45:17.090Z,13.95
2018-05-19T00:47:44.614Z,13.88
2018-05-19T00:50:12.212Z,13.88
2018-05-19T00:52:39.744Z,13.88
2018-05-19T00:55:07.273Z,13.83
2018-05-19T00:57:34.817Z,13.86
2018-05-19T01:00:02.364Z,13.85
2018-05-19T01:02:29.894Z,13.87
2018-05-19T01:04:57.572Z,13.85
2018-05-19T01:07:25.130Z,13.84
2018-05-19T01:09:52.655Z,13.86
2018-05-19T01:12:20.181Z,13.86
2018-05-19T01:14:47.704Z,13.80
2018-05-19T01:17:15.224Z,13.78
2018-05-19T01:19:42.757Z,13.80
2018-05-19T01:22:10.403Z,13.78
2018-05-19T01:24:38.053Z,13.79
2018-05-19T01:27:06.292Z,13.79
2018-05-19T01:29:33.889Z,13.80
2018-05-19T01:32:01.416Z,13.79
2018-05-19T01:34:28.935Z,13.78
2018-05-19T01:36:57.043Z,13.77
2018-05-19T01:39:24.568Z,13.75
2018-05-19T01:41:52.098Z,13.78
2018-05-19T01:44:19.624Z,13.77
2018-05-19T01:46:47.217Z,13.77
2018-05-19T01:49:14.882Z,13.79
2018-05-19T01:51:42.406Z,13.74
2018-05-19T01:54:09.931Z,13.76
2018-05-19T01:56:37.649Z,13.75
2018-05-19T01:59:05.219Z,13.74
2018-05-19T02:01:32.748Z,13.74
2018-05-19T02:04:00.274Z,13.75
2018-05-19T02:06:27.905Z,13.72
2018-05-19T02:08:55.429Z,13.70
2018-05-19T02:11:22.962Z,13.72
2018-05-19T02:13:50.498Z,13.73
2018-05-19T02:16:18.161Z,13.74
2018-05-19T02:18:45.694Z,13.74
2018-05-19T02:21:13.229Z,13.73
2018-05-19T02:23:40.752Z,13.74
2018-05-19T02:26:08.285Z,13.76
2018-05-19T02:28:35.812Z,13.74
2018-05-19T02:31:03.337Z,13.76
2018-05-19T02:33:30.873Z,13.79
2018-05-19T02:35:58.521Z,13.79
2018-05-19T02:38:26.092Z,13.79
2018-05-19T02:40:53.623Z,13.79
2018-05-19T02:43:21.187Z,13.80
2018-05-19T02:45:48.729Z,13.81
2018-05-19T02:48:16.323Z,13.82
2018-05-19T02:50:43.847Z,13.80
2018-05-19T02:53:11.376Z,13.80
2018-05-19T02:55:39.001Z,13.82
2018-05-19T02:58:06.538Z,13.83
2018-05-19T03:00:34.121Z,13.83
2018-05-19T03:03:01.647Z,13.85
2018-05-19T03:05:29.241Z,13.84
2018-05-19T03:07:56.755Z,13.87
2018-05-19T03:10:24.371Z,13.87
2018-05-19T03:12:51.896Z,13.86
2018-05-19T03:15:19.451Z,13.89
2018-05-19T03:17:47.219Z,13.90
2018-05-19T03:20:14.812Z,13.90
2018-05-19T03:22:42.332Z,13.91
2018-05-19T03:25:09.927Z,13.92
2018-05-19T03:27:37.483Z,13.92
2018-05-19T03:30:05.048Z,13.81
2018-05-19T03:32:32.711Z,13.77
2018-05-19T03:35:00.269Z,13.83
2018-05-19T03:37:27.796Z,13.84
2018-05-19T03:39:55.382Z,13.87
2018-05-19T03:42:22.922Z,13.89
2018-05-19T03:44:50.452Z,13.89
2018-05-19T03:47:18.002Z,13.89
2018-05-19T03:49:45.585Z,13.89
2018-05-19T03:52:13.191Z,13.76
2018-05-19T03:54:40.717Z,13.74
2018-05-19T03:57:20.018Z,13.73
2018-05-19T03:59:59.523Z,13.75
2018-05-19T04:02:36.020Z,13.81
2018-05-19T04:05:03.553Z,13.86
2018-05-19T04:07:31.081Z,13.87
2018-05-19T04:09:59.501Z,13.90
2018-05-19T04:12:27.036Z,13.90
2018-05-19T04:14:54.584Z,13.94
2018-05-19T04:17:24.459Z,13.90
2018-05-19T04:19:52.087Z,13.94
2018-05-19T04:22:19.615Z,13.94
2018-05-19T04:24:47.144Z,13.94
2018-05-19T04:27:14.710Z,13.99
2018-05-19T04:29:42.265Z,14.03
2018-05-19T04:32:09.974Z,14.03
2018-05-19T04:34:37.544Z,14.01
2018-05-19T04:37:05.079Z,14.02
2018-05-19T04:39:32.933Z,14.04
2018-05-19T04:42:00.468Z,14.04
2018-05-19T04:44:27.997Z,14.05
2018-05-19T04:46:55.533Z,14.08
2018-05-19T04:49:23.089Z,14.09
2018-05-19T04:51:50.948Z,14.09
2018-05-19T04:54:18.649Z,14.12
2018-05-19T04:56:46.176Z,14.13
2018-05-19T04:59:13.728Z,14.15
2018-05-19T05:01:41.288Z,14.16
2018-05-19T05:04:08.856Z,14.22
2018-05-19T05:06:36.372Z,14.25
2018-05-19T05:09:03.902Z,14.34
2018-05-19T05:11:31.428Z,14.44
2018-05-19T05:13:59.003Z,14.53
2018-05-19T05:16:26.520Z,14.59
2018-05-19T05:18:54.504Z,14.62
2018-05-19T05:21:22.112Z,14.58
2018-05-19T05:23:49.648Z,14.50
2018-05-19T05:26:17.173Z,14.51
2018-05-19T05:28:44.716Z,14.55
2018-05-19T05:31:12.250Z,14.59
2018-05-19T05:33:39.776Z,14.58
2018-05-19T05:36:07.350Z,14.63
2018-05-19T05:38:35.103Z,14.63
2018-05-19T05:41:02.671Z,14.44
2018-05-19T05:43:30.256Z,14.56
2018-05-19T05:45:57.780Z,14.58
2018-05-19T05:48:25.316Z,14.72
2018-05-19T05:50:53.079Z,14.80
2018-05-19T05:53:20.634Z,14.85
2018-05-19T05:55:48.260Z,14.84
2018-05-19T05:58:15.795Z,15.03
2018-05-19T06:00:43.349Z,15.12
2018-05-19T06:03:10.886Z,15.37
2018-05-19T06:05:38.428Z,15.62
2018-05-19T06:08:06.060Z,15.85
2018-05-19T06:10:33.621Z,16.16
2018-05-19T06:13:01.153Z,16.43
2018-05-19T06:15:28.680Z,16.58
2018-05-19T06:17:56.304Z,16.63
2018-05-19T06:20:23.856Z,16.64
2018-05-19T06:22:51.392Z,16.76
2018-05-19T06:25:18.921Z,17.08
2018-05-19T06:27:46.539Z,17.35
2018-05-19T06:30:14.097Z,16.83
2018-05-19T06:32:41.661Z,17.62
2018-05-19T06:35:09.222Z,17.98
2018-05-19T06:37:36.758Z,18.33
2018-05-19T06:40:04.284Z,18.58
2018-05-19T06:42:31.817Z,18.38
2018-05-19T06:44:59.344Z,18.31
2018-05-19T06:47:26.905Z,19.26
2018-05-19T06:49:54.443Z,19.51
2018-05-19T06:52:22.041Z,19.99
2018-05-19T06:54:50.309Z,20.23
2018-05-19T06:57:17.876Z,20.58
2018-05-19T06:59:45.436Z,20.82
2018-05-19T07:02:12.961Z,21.25
2018-05-19T07:04:40.509Z,21.40
2018-05-19T07:07:08.077Z,21.71
2018-05-19T07:09:35.604Z,21.51
2018-05-19T07:12:03.236Z,21.82
2018-05-19T07:14:30.774Z,22.02
2018-05-19T07:16:58.357Z,22.01
2018-05-19T07:19:25.883Z,20.63
2018-05-19T07:21:53.475Z,20.67
2018-05-19T07:24:21.009Z,21.11
2018-05-19T07:26:48.596Z,21.89
2018-05-19T07:29:16.120Z,22.00
2018-05-19T07:31:43.644Z,22.56
2018-05-19T07:34:11.287Z,22.20
2018-05-19T07:36:38.809Z,21.36
2018-05-19T07:39:07.117Z,22.51
2018-05-19T07:41:34.673Z,23.23
2018-05-19T07:44:02.200Z,22.62
2018-05-19T07:46:29.777Z,22.36
2018-05-19T07:48:57.367Z,23.21
2018-05-19T07:51:24.889Z,23.97
2018-05-19T07:53:52.433Z,24.25
2018-05-19T07:56:20.001Z,24.19
2018-05-19T07:58:47.526Z,22.41
2018-05-19T08:01:15.157Z,22.81
2018-05-19T08:03:43.027Z,24.43
2018-05-19T08:06:10.665Z,23.80
2018-05-19T08:08:39.715Z,25.07
2018-05-19T08:11:07.336Z,23.87
2018-05-19T08:13:34.894Z,25.66
2018-05-19T08:16:02.424Z,25.46
2018-05-19T08:18:29.951Z,24.66
2018-05-19T08:20:57.482Z,25.72
2018-05-19T08:23:25.014Z,26.22
2018-05-19T08:25:52.543Z,24.98
2018-05-19T08:28:20.264Z,24.35
2018-05-19T08:30:47.794Z,25.09
2018-05-19T08:33:15.388Z,25.18
2018-05-19T08:35:42.908Z,25.00
2018-05-19T08:38:10.440Z,24.41
2018-05-19T08:40:37.995Z,23.51
2018-05-19T08:43:05.621Z,25.63
2018-05-19T08:45:33.181Z,25.39
2018-05-19T08:48:00.744Z,25.81
2018-05-19T08:50:28.420Z,25.70
2018-05-19T08:52:55.934Z,26.00
2018-05-19T08:55:23.455Z,24.53
2018-05-19T08:57:50.980Z,26.92
2018-05-19T09:00:18.513Z,27.60
2018-05-19T09:02:46.034Z,26.57
2018-05-19T09:05:13.663Z,27.14
2018-05-19T09:07:41.197Z,26.95
2018-05-19T09:10:08.789Z,29.09
2018-05-19T09:12:36.379Z,29.20
2018-05-19T09:15:03.917Z,26.50
2018-05-19T09:17:31.444Z,26.55
2018-05-19T09:19:58.960Z,25.64
2018-05-19T09:22:26.581Z,26.50
2018-05-19T09:24:54.110Z,26.49
2018-05-19T09:27:21.637Z,27.75
2018-05-19T09:29:49.178Z,28.42
2018-05-19T09:32:16.718Z,27.83
2018-05-19T09:34:44.243Z,26.38
2018-05-19T09:37:11.809Z,26.93
2018-05-19T09:39:39.364Z,25.01
2018-05-19T09:42:06.926Z,26.32
2018-05-19T09:44:34.458Z,27.56
2018-05-19T09:47:02.080Z,28.68
2018-05-19T09:49:29.622Z,26.99
2018-05-19T09:51:57.148Z,27.46
2018-05-19T09:54:24.758Z,26.82
2018-05-19T09:56:52.284Z,26.58
2018-05-19T09:59:19.905Z,25.68
2018-05-19T10:01:47.367Z,27.89
2018-05-19T10:04:14.900Z,28.81
2018-05-19T10:06:42.427Z,28.30
2018-05-19T10:09:09.967Z,28.98
2018-05-19T10:11:37.583Z,28.88
2018-05-19T10:14:05.137Z,29.42
2018-05-19T10:16:33.727Z,27.26
2018-05-19T10:19:01.280Z,26.92
2018-05-19T10:21:28.809Z,26.85
2018-05-19T10:23:56.662Z,26.91
2018-05-19T10:26:24.187Z,26.00
2018-05-19T10:28:51.722Z,25.84
2018-05-19T10:31:19.243Z,25.05
2018-05-19T10:33:46.769Z,25.66
2018-05-19T10:36:14.308Z,25.55
2018-05-19T10:38:41.836Z,24.76
2018-05-19T10:41:09.365Z,24.57
2018-05-19T10:43:36.910Z,25.00
2018-05-19T10:46:04.444Z,23.37
2018-05-19T10:48:32.005Z,23.43
2018-05-19T10:50:59.529Z,23.49
2018-05-19T10:53:27.051Z,23.18
2018-05-19T10:55:54.583Z,22.95
2018-05-19T10:58:22.109Z,23.24
2018-05-19T11:00:49.629Z,22.72
2018-05-19T11:03:17.171Z,22.38
2018-05-19T11:05:44.733Z,22.67
2018-05-19T11:08:12.382Z,22.25
2018-05-19T11:10:39.911Z,22.36
2018-05-19T11:13:07.437Z,21.90
2018-05-19T11:15:35.000Z,21.92
2018-05-19T11:18:02.534Z,21.69
2018-05-19T11:20:30.068Z,21.82
2018-05-19T11:22:57.596Z,21.88
2018-05-19T11:25:25.190Z,21.72
2018-05-19T11:27:52.688Z,21.94
2018-05-19T11:30:20.208Z,21.75
2018-05-19T11:32:47.744Z,21.45
2018-05-19T11:35:15.304Z,21.49
2018-05-19T11:37:42.828Z,21.56
2018-05-19T11:40:10.356Z,21.47
2018-05-19T11:42:37.884Z,21.47
2018-05-19T11:45:05.406Z,21.42
2018-05-19T11:47:32.942Z,21.32
2018-05-19T11:50:00.476Z,21.38
2018-05-19T11:52:28.008Z,21.53
2018-05-19T11:54:55.540Z,21.41
2018-05-19T11:57:23.180Z,21.55
2018-05-19T11:59:50.734Z,21.63
2018-05-19T12:02:18.260Z,21.54
2018-05-19T12:04:45.924Z,21.69
2018-05-19T12:07:13.510Z,21.43
2018-05-19T12:09:41.076Z,21.54
2018-05-19T12:12:08.716Z,21.35
2018-05-19T12:14:36.198Z,21.57
2018-05-19T12:17:03.756Z,21.48
2018-05-19T12:19:31.318Z,21.48
2018-05-19T12:21:58.933Z,21.35
2018-05-19T12:24:26.543Z,21.47
2018-05-19T12:26:54.070Z,21.14
2018-05-19T12:29:22.729Z,21.33
2018-05-19T12:31:50.377Z,21.23
2018-05-19T12:34:17.938Z,21.19
2018-05-19T12:36:45.465Z,21.07
2018-05-19T12:39:12.995Z,21.16
2018-05-19T12:41:40.515Z,21.05
2018-05-19T12:44:08.047Z,21.22
2018-05-19T12:46:35.568Z,21.28
2018-05-19T12:49:03.091Z,21.25
2018-05-19T12:51:30.620Z,21.41
2018-05-19T12:53:59.320Z,21.32
2018-05-19T12:56:26.853Z,21.40
2018-05-19T12:58:54.375Z,21.70
2018-05-19T13:01:21.913Z,21.54
2018-05-19T13:03:49.457Z,21.46
2018-05-19T13:06:17.006Z,21.35
2018-05-19T13:08:44.550Z,21.55
2018-05-19T13:11:12.091Z,21.71
2018-05-19T13:13:39.621Z,21.82
2018-05-19T13:16:07.153Z,21.84
2018-05-19T13:18:34.683Z,21.92
2018-05-19T13:21:02.212Z,21.78
2018-05-19T13:23:29.801Z,21.75
2018-05-19T13:25:57.321Z,21.81
2018-05-19T13:28:24.868Z,21.83
2018-05-19T13:30:52.401Z,21.78
2018-05-19T13:33:19.937Z,21.79
2018-05-19T13:35:47.466Z,21.86
2018-05-19T13:38:15.003Z,21.95
2018-05-19T13:40:42.543Z,21.96
2018-05-19T13:43:10.082Z,21.99
2018-05-19T13:45:37.614Z,22.01
2018-05-19T13:48:05.144Z,21.93
2018-05-19T13:50:32.684Z,21.99
2018-05-19T13:53:00.212Z,22.03
2018-05-19T13:55:27.735Z,21.99
2018-05-19T13:57:55.345Z,22.04
2018-05-19T14:00:22.812Z,21.97
2018-05-19T14:02:50.348Z,22.12
2018-05-19T14:05:17.962Z,21.98
2018-05-19T14:07:45.459Z,21.95
2018-05-19T14:10:12.976Z,21.84
2018-05-19T14:12:40.514Z,21.85
2018-05-19T14:15:08.067Z,21.88
2018-05-19T14:17:35.603Z,21.74
2018-05-19T14:20:03.141Z,21.88
2018-05-19T14:22:30.677Z,21.82
2018-05-19T14:24:58.204Z,21.86
2018-05-19T14:27:25.721Z,21.87
2018-05-19T14:29:53.331Z,21.82
2018-05-19T14:32:20.861Z,21.85
2018-05-19T14:34:48.392Z,21.86
2018-05-19T14:37:15.933Z,21.90
2018-05-19T14:39:43.467Z,21.75
2018-05-19T14:42:10.998Z,21.80
2018-05-19T14:44:38.525Z,21.84
2018-05-19T14:47:06.044Z,21.87
2018-05-19T14:49:33.576Z,21.88
2018-05-19T14:52:01.090Z,21.81
2018-05-19T14:54:28.625Z,21.80
2018-05-19T14:56:56.149Z,21.70
2018-05-19T14:59:23.681Z,21.72
2018-05-19T15:01:51.225Z,21.76
2018-05-19T15:04:18.762Z,21.72
2018-05-19T15:06:46.361Z,21.69
2018-05-19T15:09:13.890Z,21.62
2018-05-19T15:11:41.410Z,21.54
2018-05-19T15:14:08.938Z,21.58
2018-05-19T15:16:36.457Z,21.64
2018-05-19T15:19:03.994Z,21.70
2018-05-19T15:21:31.514Z,21.69
2018-05-19T15:23:59.035Z,21.68
2018-05-19T15:26:26.563Z,21.74
2018-05-19T15:28:54.082Z,21.77
2018-05-19T15:31:21.614Z,21.77
2018-05-19T15:33:49.141Z,21.74
2018-05-19T15:36:16.668Z,21.70
2018-05-19T15:38:44.237Z,21.70
2018-05-19T15:41:11.743Z,21.61
2018-05-19T15:43:39.262Z,21.63
2018-05-19T15:46:06.792Z,21.69
2018-05-19T15:48:34.340Z,21.69
2018-05-19T15:51:01.884Z,21.69
2018-05-19T15:53:29.414Z,21.66
2018-05-19T15:55:56.933Z,21.67
2018-05-19T15:58:24.464Z,21.65
2018-05-19T16:00:52.061Z,21.61
2018-05-19T16:03:19.585Z,21.61
2018-05-19T16:05:47.117Z,21.55
2018-05-19T16:08:14.639Z,21.55
2018-05-19T16:10:42.177Z,21.54
2018-05-19T16:13:09.719Z,21.53
2018-05-19T16:15:37.245Z,21.54
2018-05-19T16:18:04.779Z,21.59
2018-05-19T16:20:32.301Z,21.58
2018-05-19T16:22:59.830Z,21.56
2018-05-19T16:25:27.353Z,21.54
2018-05-19T16:27:54.879Z,21.54
2018-05-19T16:30:22.404Z,21.48
2018-05-19T16:32:49.928Z,21.47
2018-05-19T16:35:17.456Z,21.48
2018-05-19T16:37:44.985Z,21.46
2018-05-19T16:40:12.513Z,21.45
2018-05-19T16:42:40.036Z,21.45
2018-05-19T16:45:07.578Z,21.41
2018-05-19T16:47:35.124Z,21.36
2018-05-19T16:50:02.643Z,21.36
2018-05-19T16:52:30.169Z,21.36
2018-05-19T16:54:57.690Z,21.26
2018-05-19T16:57:26.438Z,21.27
2018-05-19T16:59:54.182Z,21.25
2018-05-19T17:02:21.710Z,21.23
2018-05-19T17:04:49.232Z,21.14
2018-05-19T17:07:16.760Z,21.07
2018-05-19T17:09:44.287Z,21.09
2018-05-19T17:12:11.810Z,21.08
2018-05-19T17:14:39.355Z,21.04
2018-05-19T17:17:06.880Z,21.01
2018-05-19T17:19:34.403Z,20.99
2018-05-19T17:22:01.970Z,20.97
2018-05-19T17:24:29.508Z,21.00
2018-05-19T17:26:57.071Z,20.96
2018-05-19T17:29:24.598Z,20.90
2018-05-19T17:31:52.113Z,20.88
2018-05-19T17:34:19.639Z,20.82
2018-05-19T17:36:47.177Z,20.82
2018-05-19T17:39:14.772Z,20.79
2018-05-19T17:41:42.294Z,20.78
2018-05-19T17:44:09.808Z,20.74
2018-05-19T17:46:37.340Z,20.73
2018-05-19T17:49:04.874Z,20.69
2018-05-19T17:51:32.421Z,20.64
2018-05-19T17:53:59.946Z,20.63
2018-05-19T17:56:27.475Z,20.61
2018-05-19T17:58:54.997Z,20.61
2018-05-19T18:01:22.547Z,20.58
2018-05-19T18:03:50.090Z,20.54
2018-05-19T18:06:17.614Z,20.49
2018-05-19T18:08:45.130Z,20.46
2018-05-19T18:11:12.666Z,20.43
2018-05-19T18:13:40.205Z,20.40
2018-05-19T18:16:07.725Z,20.36
2018-05-19T18:18:35.340Z,20.33
2018-05-19T18:21:02.903Z,20.31
2018-05-19T18:23:30.428Z,20.26
2018-05-19T18:25:57.972Z,20.23
2018-05-19T18:28:25.495Z,20.23
2018-05-19T18:30:53.020Z,20.19
2018-05-19T18:33:20.544Z,20.15
2018-05-19T18:35:48.067Z,20.07
2018-05-19T18:38:15.620Z,20.02
2018-05-19T18:40:43.148Z,20.01
2018-05-19T18:43:10.678Z,19.97
2018-05-19T18:45:38.205Z,19.92
2018-05-19T18:48:05.731Z,19.90
2018-05-19T18:50:33.245Z,19.87
2018-05-19T18:53:00.779Z,19.88
2018-05-19T18:55:28.330Z,19.82
2018-05-19T18:57:56.772Z,19.77
2018-05-19T19:00:24.291Z,19.76
2018-05-19T19:02:51.853Z,19.66
2018-05-19T19:05:19.378Z,19.61
2018-05-19T19:07:46.923Z,19.57
2018-05-19T19:10:14.563Z,19.62
2018-05-19T19:12:42.102Z,19.56
2018-05-19T19:15:09.640Z,19.46
2018-05-19T19:17:37.167Z,19.42
2018-05-19T19:20:04.696Z,19.40
2018-05-19T19:22:32.255Z,19.33
2018-05-19T19:24:59.815Z,19.28
2018-05-19T19:27:27.376Z,19.32
2018-05-19T19:29:54.934Z,19.24
2018-05-19T19:32:22.568Z,19.16
2018-05-19T19:34:50.200Z,19.10
2018-05-19T19:37:17.720Z,19.08
2018-05-19T19:39:45.259Z,19.01
2018-05-19T19:42:12.840Z,18.92
2018-05-19T19:44:40.437Z,18.84
2018-05-19T19:47:07.986Z,18.87
2018-05-19T19:49:35.541Z,18.78
2018-05-19T19:52:03.981Z,18.74
2018-05-19T19:54:31.709Z,18.70
2018-05-19T19:56:59.280Z,18.57
2018-05-19T19:59:26.846Z,18.59
2018-05-19T20:01:54.400Z,18.48
2018-05-19T20:04:21.978Z,18.49
2018-05-19T20:06:49.520Z,18.49
2018-05-19T20:09:17.068Z,18.37
2018-05-19T20:11:44.627Z,18.34
2018-05-19T20:14:13.072Z,18.28
2018-05-19T20:16:40.557Z,18.24
2018-05-19T20:19:08.154Z,18.22
2018-05-19T20:21:35.759Z,18.09
2018-05-19T20:24:03.333Z,18.10
2018-05-19T20:26:30.925Z,18.01
2018-05-19T20:28:58.508Z,18.02
2018-05-19T20:31:26.212Z,17.99
2018-05-19T20:33:53.850Z,17.85
2018-05-19T20:36:21.472Z,17.84
2018-05-19T20:38:49.021Z,17.84
2018-05-19T20:41:16.582Z,17.84
2018-05-19T20:43:44.142Z,17.63
2018-05-19T20:46:11.682Z,17.63
2018-05-19T20:48:39.234Z,17.57
2018-05-19T20:51:06.931Z,17.61
2018-05-19T20:53:34.473Z,17.51
2018-05-19T20:56:02.015Z,17.47
2018-05-19T20:58:29.557Z,17.47
2018-05-19T21:00:57.116Z,17.44
2018-05-19T21:03:24.654Z,17.40
2018-05-19T21:05:52.215Z,17.39
2018-05-19T21:08:19.735Z,17.37
2018-05-19T21:10:47.263Z,17.31
2018-05-19T21:13:14.791Z,17.34
2018-05-19T21:15:42.303Z,17.28
2018-05-19T21:18:09.827Z,17.28
2018-05-19T21:20:37.351Z,17.20
2018-05-19T21:23:04.877Z,17.10
2018-05-19T21:25:32.408Z,17.11
2018-05-19T21:27:59.934Z,17.13
2018-05-19T21:30:27.473Z,17.12
2018-05-19T21:32:55.009Z,17.00
2018-05-19T21:35:22.611Z,16.98
2018-05-19T21:37:50.148Z,16.93
2018-05-19T21:40:17.677Z,16.93
2018-05-19T21:42:45.193Z,16.91
2018-05-19T21:45:12.709Z,16.82
2018-05-19T21:47:40.228Z,16.80
2018-05-19T21:50:07.829Z,16.74
2018-05-19T21:52:35.318Z,16.70
2018-05-19T21:55:02.924Z,16.71
2018-05-19T21:57:30.527Z,16.68
2018-05-19T21:59:58.000Z,16.60
2018-05-19T22:02:25.529Z,16.55
2018-05-19T22:04:53.066Z,16.51
2018-05-19T22:07:20.598Z,16.54
2018-05-19T22:09:48.119Z,16.52
2018-05-19T22:12:15.653Z,16.47
2018-05-19T22:14:43.261Z,16.33
2018-05-19T22:17:10.785Z,16.29
2018-05-19T22:19:38.315Z,16.29
2018-05-19T22:22:05.876Z,16.23
2018-05-19T22:24:33.408Z,16.20
2018-05-19T22:27:00.923Z,16.18
2018-05-19T22:29:28.459Z,16.09
2018-05-19T22:31:55.985Z,16.10
2018-05-19T22:34:23.513Z,16.04
2018-05-19T22:36:51.050Z,15.97
2018-05-19T22:39:18.572Z,15.88
2018-05-19T22:41:46.098Z,15.85
2018-05-19T22:44:13.663Z,15.86
2018-05-19T22:46:41.196Z,15.70
2018-05-19T22:49:08.729Z,15.79
2018-05-19T22:51:36.245Z,15.77
2018-05-19T22:54:03.770Z,15.72
2018-05-19T22:56:31.324Z,15.61
2018-05-19T22:58:58.861Z,15.57
2018-05-19T23:01:26.396Z,15.44
2018-05-19T23:03:54.057Z,15.34
2018-05-19T23:06:21.579Z,15.35
2018-05-19T23:08:49.106Z,15.26
2018-05-19T23:11:16.646Z,15.15
2018-05-19T23:13:44.169Z,15.05
2018-05-19T23:16:11.692Z,15.07
2018-05-19T23:18:39.211Z,15.11
2018-05-19T23:21:06.733Z,15.00
2018-05-19T23:23:34.262Z,14.94
2018-05-19T23:26:01.801Z,14.82
2018-05-19T23:28:29.311Z,14.92
2018-05-19T23:30:56.835Z,14.91
2018-05-19T23:33:24.355Z,14.82
2018-05-19T23:35:51.901Z,14.78
2018-05-19T23:38:19.448Z,14.58
2018-05-19T23:40:46.973Z,14.67
2018-05-19T23:43:14.498Z,14.66
2018-05-19T23:45:42.016Z,14.56
2018-05-19T23:48:09.540Z,14.50
2018-05-19T23:50:37.083Z,14.45
2018-05-19T23:53:04.610Z,14.42
2018-05-19T23:55:32.132Z,14.47
2018-05-19T23:57:59.661Z,14.47
